Weather at La Tontouta International Airport

Public forecast

Using degrees Celsius for public forecast. Weather courtesy of forecast.io.

Current aviation weather report (METAR) for La Tontouta International Airport

Retrieved 2022/07/02 01:30 UTC (2 minutes ago):

NWWW 020130Z AUTO 21003KT 160V270 9999 FEW029 26/19 Q1017 NOSIG

Aviation forecast (TAF) for La Tontouta International Airport

Retrieved 2022-07-02 00:30 UTC (1 hour ago):

TAF NWWW 012300Z 0200/0224 03006KT 9999 BKN040 SCT060